createdAt,value
2022-08-05T00:03:44.312Z,56.67
2022-08-05T00:06:35.776Z,56.37
2022-08-05T00:12:04.564Z,56.78
2022-08-05T00:17:41.235Z,54.09
2022-08-05T00:23:12.823Z,55.82
2022-08-05T00:28:49.387Z,56.37
2022-08-05T00:31:53.609Z,56.02
2022-08-05T00:34:54.615Z,56.08
2022-08-05T00:40:09.503Z,54.09
2022-08-05T00:45:43.719Z,53.68
2022-08-05T00:48:31.414Z,53.32
2022-08-05T00:54:07.766Z,52.95
2022-08-05T00:59:44.653Z,58.78
2022-08-05T01:02:36.321Z,61.54
2022-08-05T01:08:41.180Z,61.33
2022-08-05T01:13:59.905Z,58.13
2022-08-05T01:20:01.338Z,53.99
2022-08-05T01:22:39.533Z,54.07
2022-08-05T01:28:35.537Z,55.20
2022-08-05T01:31:27.923Z,54.05
2022-08-05T01:37:07.355Z,53.20
2022-08-05T01:45:34.926Z,53.47
2022-08-05T01:51:11.971Z,54.64
2022-08-05T01:53:58.857Z,54.92
2022-08-05T01:58:11.774Z,57.88
2022-08-05T01:59:41.830Z,59.93
2022-08-05T02:02:33.925Z,62.04
2022-08-05T02:05:28.635Z,62.55
2022-08-05T02:08:30.731Z,61.39
2022-08-05T02:11:11.623Z,62.02
2022-08-05T02:14:02.345Z,63.54
2022-08-05T02:22:40.434Z,63.51
2022-08-05T02:28:21.502Z,62.68
2022-08-05T02:36:50.379Z,61.15
2022-08-05T02:39:41.180Z,60.07
2022-08-05T02:48:14.609Z,62.15
2022-08-05T02:53:54.841Z,60.87
2022-08-05T02:56:43.979Z,61.63
2022-08-05T02:59:48.124Z,61.18
2022-08-05T03:06:56.095Z,62.82
2022-08-05T03:11:56.273Z,63.34
2022-08-05T03:16:40.164Z,64.67
2022-08-05T03:19:34.470Z,64.59
2022-08-05T03:25:31.853Z,66.09
2022-08-05T03:28:02.111Z,66.16
2022-08-05T03:30:52.773Z,66.16
2022-08-05T03:36:28.050Z,64.05
2022-08-05T03:41:56.645Z,63.61
2022-08-05T03:47:35.568Z,62.32
2022-08-05T03:55:53.788Z,62.47
2022-08-05T03:58:43.730Z,67.36
2022-08-05T04:01:34.572Z,69.32
2022-08-05T04:07:12.037Z,73.67
2022-08-05T04:15:36.692Z,74.68
2022-08-05T04:18:25.714Z,75.69
2022-08-05T04:24:05.977Z,76.11
2022-08-05T04:29:36.939Z,77.10
2022-08-05T04:32:31.005Z,76.99
2022-08-05T04:35:20.072Z,76.60
2022-08-05T04:40:57.166Z,76.35
2022-08-05T04:46:35.887Z,74.61
2022-08-05T04:52:14.843Z,74.19
2022-08-05T04:57:54.191Z,73.50
2022-08-05T05:00:41.876Z,73.58
2022-08-05T05:06:40.468Z,73.24
2022-08-05T05:11:55.523Z,73.03
2022-08-05T05:17:55.787Z,72.35
2022-08-05T05:20:20.307Z,72.24
2022-08-05T05:25:59.448Z,72.05
2022-08-05T05:28:49.188Z,71.51
2022-08-05T05:34:24.263Z,64.21
2022-08-05T05:37:15.676Z,60.54
2022-08-05T05:40:04.407Z,59.28
2022-08-05T05:45:48.289Z,58.49
2022-08-05T05:51:21.991Z,59.80
2022-08-05T05:54:11.653Z,60.80
2022-08-05T05:59:48.811Z,58.45
2022-08-05T06:05:55.768Z,56.52
2022-08-05T06:11:35.461Z,55.70
2022-08-05T06:17:24.453Z,55.66
2022-08-05T06:20:02.254Z,54.20
2022-08-05T06:26:12.890Z,50.56
2022-08-05T06:31:22.590Z,51.62
2022-08-05T06:34:12.108Z,53.85
2022-08-05T06:37:02.543Z,55.13
2022-08-05T06:39:51.392Z,56.27
2022-08-05T06:42:40.643Z,57.08
2022-08-05T06:48:53.142Z,58.43
2022-08-05T06:53:57.491Z,60.98
2022-08-05T06:59:38.847Z,58.55
2022-08-05T07:05:15.321Z,53.31
2022-08-05T07:08:02.414Z,50.53
2022-08-05T07:13:58.116Z,44.51
2022-08-05T07:20:10.656Z,47.28
2022-08-05T07:24:55.162Z,47.80
2022-08-05T07:30:32.004Z,49.64
2022-08-05T07:36:21.139Z,49.48
2022-08-05T07:42:14.782Z,48.61
2022-08-05T07:47:20.629Z,49.01
2022-08-05T07:53:13.931Z,48.50
2022-08-05T07:58:57.503Z,48.41
2022-08-05T08:04:22.973Z,50.98
2022-08-05T08:07:09.957Z,50.63
2022-08-05T08:12:49.198Z,46.05
2022-08-05T08:18:24.586Z,45.49
2022-08-05T08:24:04.907Z,48.67
2022-08-05T08:30:05.481Z,48.08
2022-08-05T08:32:28.094Z,48.43
2022-08-05T08:37:45.083Z,44.99
2022-08-05T08:45:18.162Z,42.59
2022-08-05T08:50:23.069Z,44.65
2022-08-05T08:54:44.857Z,44.60
2022-08-05T09:06:08.637Z,42.54
2022-08-05T09:08:45.787Z,43.28
2022-08-05T09:11:53.370Z,42.94
2022-08-05T09:17:40.231Z,41.93
2022-08-05T09:20:09.071Z,42.44
2022-08-05T09:26:09.244Z,42.21
2022-08-05T09:32:40.148Z,43.15
2022-08-05T09:38:16.163Z,41.63
2022-08-05T09:40:37.764Z,43.36
2022-08-05T09:43:41.255Z,44.30
2022-08-05T09:46:30.799Z,42.97
2022-08-05T09:49:40.311Z,43.66
2022-08-05T09:52:29.034Z,44.20
2022-08-05T09:55:56.749Z,43.95
2022-08-05T10:00:58.046Z,43.57
2022-08-05T10:04:00.140Z,42.85
2022-08-05T10:06:59.469Z,42.52
2022-08-05T10:12:49.289Z,41.63
2022-08-05T10:15:34.338Z,42.01
2022-08-05T10:18:24.045Z,42.09
2022-08-05T10:26:54.510Z,42.77
2022-08-05T10:32:53.046Z,44.22
2022-08-05T10:38:11.890Z,43.69
2022-08-05T10:43:53.225Z,43.83
2022-08-05T10:49:33.348Z,44.27
2022-08-05T10:52:39.008Z,45.01
2022-08-05T10:58:18.013Z,44.49
2022-08-05T11:01:11.460Z,44.16
2022-08-05T11:07:10.809Z,42.10
2022-08-05T11:12:55.304Z,40.13
2022-08-05T11:18:32.678Z,40.49
2022-08-05T11:24:30.308Z,39.15
2022-08-05T11:27:51.078Z,38.44
2022-08-05T11:33:44.219Z,38.73
2022-08-05T11:36:34.270Z,36.88
2022-08-05T11:42:02.228Z,37.49
2022-08-05T11:44:54.027Z,37.03
2022-08-05T11:47:48.828Z,36.27
2022-08-05T11:50:30.834Z,36.61
2022-08-05T11:53:20.238Z,36.30
2022-08-05T11:58:55.190Z,36.78
2022-08-05T12:08:04.395Z,32.16
2022-08-05T12:10:38.660Z,34.35
2022-08-05T12:16:04.292Z,31.90
2022-08-05T12:18:55.468Z,31.09
2022-08-05T12:21:49.108Z,31.15
2022-08-05T12:24:43.588Z,30.67
2022-08-05T12:30:22.301Z,32.04
2022-08-05T12:35:53.361Z,31.36
2022-08-05T12:41:34.377Z,29.75
2022-08-05T12:44:33.141Z,30.57
2022-08-05T12:50:16.746Z,31.79
2022-08-05T12:55:56.452Z,30.98
2022-08-05T13:02:02.597Z,30.29
2022-08-05T13:07:16.149Z,30.73
2022-08-05T13:10:02.135Z,30.17
2022-08-05T13:15:50.362Z,30.42
2022-08-05T13:18:39.857Z,29.26
2022-08-05T13:24:27.751Z,30.77
2022-08-05T13:27:11.078Z,30.69
2022-08-05T13:32:50.398Z,30.18
2022-08-05T13:41:07.618Z,30.73
2022-08-05T13:43:56.416Z,30.87
2022-08-05T13:47:02.545Z,30.88
2022-08-05T13:49:35.552Z,31.24
2022-08-05T13:52:29.470Z,31.20
2022-08-05T13:58:05.807Z,31.36
2022-08-05T14:00:59.084Z,31.67
2022-08-05T14:03:51.389Z,31.30
2022-08-05T14:06:39.823Z,31.37
2022-08-05T14:12:18.194Z,31.27
2022-08-05T14:16:05.259Z,30.93
2022-08-05T14:17:59.467Z,31.08
2022-08-05T14:20:46.822Z,31.54
2022-08-05T14:23:38.172Z,31.53
2022-08-05T14:26:36.764Z,31.48
2022-08-05T14:32:13.729Z,30.46
2022-08-05T14:37:45.623Z,30.66
2022-08-05T14:46:08.267Z,31.13
2022-08-05T14:51:43.223Z,30.86
2022-08-05T14:57:33.943Z,31.51
2022-08-05T15:00:20.002Z,31.11
2022-08-05T15:06:08.159Z,30.49
2022-08-05T15:08:59.661Z,29.22
2022-08-05T15:14:33.396Z,30.21
2022-08-05T15:17:44.443Z,30.27
2022-08-05T15:22:52.334Z,30.50
2022-08-05T15:25:53.834Z,31.47
2022-08-05T15:34:32.587Z,32.29
2022-08-05T15:41:00.282Z,32.18
2022-08-05T15:45:38.505Z,32.13
2022-08-05T15:48:15.452Z,32.11
2022-08-05T15:53:51.819Z,31.75
2022-08-05T15:59:26.730Z,31.66
2022-08-05T16:05:13.827Z,31.23
2022-08-05T16:08:04.059Z,30.90
2022-08-05T16:13:41.705Z,31.61
2022-08-05T16:19:19.197Z,31.13
2022-08-05T16:24:51.797Z,31.87
2022-08-05T16:30:23.230Z,32.45
2022-08-05T16:35:56.256Z,34.16
2022-08-05T16:42:14.277Z,35.46
2022-08-05T16:44:25.792Z,36.24
2022-08-05T16:50:02.481Z,36.20
2022-08-05T16:52:56.656Z,36.72
2022-08-05T16:58:26.883Z,37.89
2022-08-05T17:04:04.085Z,38.54
2022-08-05T17:06:53.770Z,39.29
2022-08-05T17:12:51.676Z,44.04
2022-08-05T17:17:56.712Z,53.04
2022-08-05T17:24:03.525Z,59.86
2022-08-05T17:29:11.540Z,69.31
2022-08-05T17:34:40.992Z,71.65
2022-08-05T17:40:22.415Z,73.08
2022-08-05T17:45:48.578Z,72.40
2022-08-05T17:48:43.304Z,69.84
2022-08-05T17:51:40.534Z,71.22
2022-08-05T17:54:23.587Z,72.32
2022-08-05T18:00:05.065Z,78.95
2022-08-05T18:05:35.180Z,73.26
2022-08-05T18:10:58.712Z,71.50
2022-08-05T18:13:46.923Z,70.10
2022-08-05T18:16:46.753Z,70.35
2022-08-05T18:19:26.645Z,75.11
2022-08-05T18:22:17.994Z,78.94
2022-08-05T18:25:06.745Z,77.89
2022-08-05T18:30:39.017Z,79.01
2022-08-05T18:33:27.089Z,78.91
2022-08-05T18:38:57.280Z,79.41
2022-08-05T18:44:35.181Z,77.35
2022-08-05T18:47:17.336Z,75.60
2022-08-05T18:52:51.365Z,77.67
2022-08-05T18:58:16.630Z,76.49
2022-08-05T19:03:56.691Z,79.72
2022-08-05T19:09:27.385Z,80.40
2022-08-05T19:12:17.879Z,81.72
2022-08-05T19:18:08.464Z,83.92
2022-08-05T19:20:41.322Z,83.92
2022-08-05T19:24:07.124Z,87.49
2022-08-05T19:29:11.020Z,91.05
2022-08-05T19:32:00.893Z,92.06
2022-08-05T19:34:54.736Z,92.43
2022-08-05T19:40:30.683Z,95.21
2022-08-05T19:46:16.702Z,96.06
2022-08-05T19:49:04.112Z,95.19
2022-08-05T19:54:32.648Z,89.84
2022-08-05T20:00:13.999Z,89.05
2022-08-05T20:03:05.388Z,90.75
2022-08-05T20:05:56.747Z,91.95
2022-08-05T20:11:37.750Z,89.84
2022-08-05T20:14:27.103Z,86.41
2022-08-05T20:17:16.317Z,86.64
2022-08-05T20:20:09.539Z,85.61
2022-08-05T20:25:40.556Z,85.46
2022-08-05T20:28:36.709Z,89.07
2022-08-05T20:31:42.833Z,87.57
2022-08-05T20:37:24.050Z,90.88
2022-08-05T20:40:02.809Z,91.71
2022-08-05T20:45:56.625Z,95.13
2022-08-05T20:48:36.549Z,94.64
2022-08-05T20:54:14.436Z,95.26
2022-08-05T20:57:03.579Z,96.27
2022-08-05T21:02:43.671Z,95.08
2022-08-05T21:05:48.035Z,94.16
2022-08-05T21:11:10.161Z,94.21
2022-08-05T21:17:04.893Z,96.33
2022-08-05T21:22:39.739Z,95.83
2022-08-05T21:25:33.507Z,95.42
2022-08-05T21:31:09.091Z,97.33
2022-08-05T21:33:57.712Z,97.81
2022-08-05T21:39:40.756Z,99.74
2022-08-05T21:42:40.838Z,99.30
2022-08-05T21:45:24.783Z,99.07
2022-08-05T21:50:54.835Z,97.81
2022-08-05T21:53:59.472Z,96.57
2022-08-05T21:56:51.403Z,98.76
2022-08-05T22:00:02.035Z,95.96
2022-08-05T22:05:15.300Z,91.36
2022-08-05T22:10:53.253Z,87.55
2022-08-05T22:16:41.383Z,89.56
2022-08-05T22:21:57.808Z,90.78
2022-08-05T22:25:04.269Z,92.74
2022-08-05T22:28:09.385Z,94.92
2022-08-05T22:33:55.506Z,97.97
2022-08-05T22:39:09.484Z,100.00
2022-08-05T22:44:42.422Z,100.00
2022-08-05T22:47:31.222Z,100.00
2022-08-05T22:53:09.760Z,100.00
2022-08-05T22:58:49.566Z,100.00
2022-08-05T23:02:03.963Z,100.00
2022-08-05T23:07:16.325Z,100.00
2022-08-05T23:12:56.246Z,100.00
2022-08-05T23:18:37.022Z,100.00
2022-08-05T23:24:14.658Z,97.41
2022-08-05T23:29:50.759Z,99.19
2022-08-05T23:32:45.016Z,100.00
2022-08-05T23:38:12.136Z,100.00
2022-08-05T23:41:02.449Z,100.00
2022-08-05T23:44:05.320Z,100.00
2022-08-05T23:46:42.538Z,100.00
2022-08-05T23:52:30.790Z,100.00
2022-08-05T23:55:21.713Z,100.00
